Time;durP1;ratioP1;P1;durP2;ratioP2;P2;SDS_P1;SDS_P2;PMS_P1;PMS_P2;Temp;Humidity;BMP_temperature;BMP_pressure;BME280_temperature;BME280_humidity;BME280_pressure;Samples;Min_cycle;Max_cycle;Signal;HPM_P1;HPM_P2
2023/07/13 03:02:00;;;;;;;35.80;33.83;;;17.40;99.90;;;;;;5284716;22;20263;-69
2023/07/13 03:04:26;;;;;;;38.07;36.10;;;17.30;99.90;;;;;;4998268;28;20211;-69
2023/07/13 03:06:51;;;;;;;45.37;43.03;;;17.20;99.90;;;;;;4994938;28;20608;-68
2023/07/13 03:09:17;;;;;;;69.17;65.53;;;17.20;99.90;;;;;;4992746;28;20188;-69
2023/07/13 03:11:43;;;;;;;74.00;70.20;;;17.20;99.90;;;;;;4992340;28;20573;-69
2023/07/13 03:14:09;;;;;;;63.30;60.07;;;17.10;99.90;;;;;;4987143;28;20184;-69
2023/07/13 03:16:34;;;;;;;61.87;58.63;;;17.10;99.90;;;;;;4992151;28;20238;-66
2023/07/13 03:19:00;;;;;;;65.90;62.50;;;17.00;99.90;;;;;;4992300;28;20195;-67
2023/07/13 03:21:26;;;;;;;58.73;55.60;;;17.00;99.90;;;;;;4992164;28;20216;-67
2023/07/13 03:23:52;;;;;;;47.73;45.33;;;16.90;99.90;;;;;;4992059;28;20275;-67
2023/07/13 03:26:19;;;;;;;41.23;39.00;;;16.80;99.90;;;;;;4990838;28;20199;-68
2023/07/13 03:28:46;;;;;;;37.57;35.73;;;16.80;99.90;;;;;;4990786;28;20600;-66
2023/07/13 03:31:18;;;;;;;40.90;38.80;;;16.70;99.90;;;;;;4991659;28;20266;-67
2023/07/13 03:33:45;;;;;;;35.90;34.00;;;16.60;99.90;;;;;;4989177;28;20188;-68
2023/07/13 03:36:18;;;;;;;23.47;22.17;;;16.50;99.90;;;;;;4991946;28;20242;-67
2023/07/13 03:38:46;;;;;;;19.87;18.77;;;16.40;99.90;;;;;;4991728;28;20211;-67
2023/07/13 03:41:12;;;;;;;14.53;13.80;;;16.30;99.90;;;;;;4990977;28;20215;-68
2023/07/13 03:43:38;;;;;;;14.20;13.37;;;16.30;99.90;;;;;;4990785;28;21605;-68
2023/07/13 03:46:03;;;;;;;15.20;14.10;;;16.40;99.90;;;;;;4990742;28;20184;-67
2023/07/13 03:48:29;;;;;;;17.23;16.03;;;16.40;99.90;;;;;;4990318;28;20188;-69
2023/07/13 03:50:55;;;;;;;15.63;14.90;;;16.40;99.90;;;;;;4985586;28;20196;-67
2023/07/13 03:53:21;;;;;;;12.77;12.17;;;16.50;99.90;;;;;;4977226;28;20221;-67
2023/07/13 03:55:46;;;;;;;17.63;16.43;;;16.50;99.90;;;;;;4991867;28;20668;-67
2023/07/13 03:58:39;;;;;;;16.63;15.77;;;16.50;99.90;;;;;;4990943;28;20256;-67
2023/07/13 04:01:07;;;;;;;12.83;11.87;;;16.60;99.90;;;;;;4989420;28;20234;-68
2023/07/13 04:03:34;;;;;;;14.70;13.90;;;16.60;99.90;;;;;;4991470;28;20216;-67
2023/07/13 04:06:02;;;;;;;14.67;13.87;;;16.70;99.90;;;;;;4991078;28;20196;-66
2023/07/13 04:08:30;;;;;;;18.87;17.87;;;16.80;99.90;;;;;;4989732;28;20188;-67
2023/07/13 04:10:56;;;;;;;26.50;24.93;;;16.80;99.90;;;;;;4991319;28;20205;-67
2023/07/13 04:13:22;;;;;;;27.73;26.27;;;16.90;99.90;;;;;;4991105;28;20222;-68
2023/07/13 04:15:48;;;;;;;25.67;24.07;;;17.00;99.90;;;;;;4990116;28;20677;-68
2023/07/13 04:18:14;;;;;;;21.97;20.30;;;17.10;99.90;;;;;;4990703;28;20192;-68
2023/07/13 04:20:39;;;;;;;13.93;13.13;;;17.30;99.90;;;;;;4991028;28;20216;-67
2023/07/13 04:23:05;;;;;;;9.43;8.83;;;17.40;99.90;;;;;;4991376;28;20699;-67
2023/07/13 04:25:31;;;;;;;10.37;9.77;;;17.50;99.90;;;;;;4991310;28;20223;-65
2023/07/13 04:27:57;;;;;;;36.43;34.40;;;17.50;99.90;;;;;;4989450;28;20184;-64
2023/07/13 04:30:23;;;;;;;64.87;61.43;;;17.50;99.90;;;;;;4991237;28;20215;-67
2023/07/13 04:32:52;;;;;;;62.77;59.23;;;17.40;99.90;;;;;;4991357;28;20188;-65
2023/07/13 04:35:21;;;;;;;38.63;36.50;;;17.50;99.90;;;;;;4991088;28;20567;-67
2023/07/13 04:37:50;;;;;;;90.63;85.60;;;17.50;99.90;;;;;;4990757;28;20573;-66
2023/07/13 04:40:17;;;;;;;90.77;85.87;;;17.60;99.90;;;;;;4993720;28;20541;-66
2023/07/13 04:42:44;;;;;;;84.90;80.37;;;17.70;99.90;;;;;;4993782;28;20224;-64
2023/07/13 04:45:11;;;;;;;151.10;143.53;;;17.70;99.90;;;;;;4994064;28;20192;-66
2023/07/13 04:47:36;;;;;;;212.00;201.17;;;17.80;99.90;;;;;;4993722;28;20287;-66
2023/07/13 04:50:02;;;;;;;230.77;218.40;;;17.90;99.90;;;;;;4994833;28;20645;-66
2023/07/13 04:52:28;;;;;;;264.20;250.50;;;17.90;99.90;;;;;;4994778;28;20296;-67
2023/07/13 04:54:54;;;;;;;263.40;249.90;;;18.00;99.90;;;;;;4994913;28;20663;-67
2023/07/13 04:57:20;;;;;;;265.37;251.43;;;18.00;99.90;;;;;;4994257;28;20184;-66
2023/07/13 04:59:46;;;;;;;276.87;262.17;;;18.00;99.90;;;;;;4994922;28;20235;-65
2023/07/13 05:02:11;;;;;;;288.00;273.00;;;18.00;99.90;;;;;;4993522;28;20240;-67
2023/07/13 05:04:37;;;;;;;289.03;273.97;;;18.10;99.90;;;;;;4994723;28;20239;-66
2023/07/13 05:07:03;;;;;;;278.93;264.63;;;18.10;99.90;;;;;;4996240;28;20450;-67
2023/07/13 05:09:29;;;;;;;284.70;269.80;;;18.10;99.90;;;;;;4994979;28;20274;-66
2023/07/13 05:11:54;;;;;;;258.10;244.77;;;18.20;99.90;;;;;;4995549;28;20767;-66
2023/07/13 05:14:20;;;;;;;301.97;285.53;;;18.20;99.90;;;;;;5000110;28;20279;-66
2023/07/13 05:16:46;;;;;;;201.20;190.53;;;18.20;99.90;;;;;;4993423;28;20578;-67
2023/07/13 05:19:12;;;;;;;152.97;145.00;;;18.30;99.90;;;;;;4993081;28;20203;-65
2023/07/13 05:21:38;;;;;;;132.17;125.50;;;18.40;99.90;;;;;;4994520;28;20216;-66
2023/07/13 05:24:03;;;;;;;146.40;138.60;;;18.40;99.90;;;;;;4994418;28;20762;-66
2023/07/13 05:26:29;;;;;;;134.90;127.82;;;18.50;99.90;;;;;;4994563;28;20196;-66
2023/07/13 05:28:55;;;;;;;114.47;108.45;;;18.50;99.90;;;;;;4993954;28;20199;-66
2023/07/13 05:31:21;;;;;;;112.05;106.50;;;18.60;99.90;;;;;;4994483;28;20220;-65
2023/07/13 05:33:46;;;;;;;62.50;59.38;;;18.70;99.90;;;;;;4994554;28;20720;-66
2023/07/13 05:36:12;;;;;;;19.48;18.30;;;18.80;99.90;;;;;;4994088;28;20323;-66
2023/07/13 05:38:38;;;;;;;18.20;16.60;;;18.90;99.90;;;;;;4993754;28;20195;-67
2023/07/13 05:41:04;;;;;;;46.33;43.65;;;19.00;99.90;;;;;;4992970;28;20208;-67
2023/07/13 05:43:30;;;;;;;60.35;56.78;;;19.20;99.90;;;;;;4993773;28;20791;-67
2023/07/13 05:45:56;;;;;;;51.97;49.08;;;19.40;99.90;;;;;;4994010;28;20181;-67
2023/07/13 05:48:23;;;;;;;19.40;17.58;;;19.70;99.90;;;;;;4993635;28;20192;-67
2023/07/13 05:50:49;;;;;;;16.55;15.65;;;20.00;99.90;;;;;;4992938;28;20646;-67
2023/07/13 05:53:15;;;;;;;17.30;16.10;;;20.30;99.90;;;;;;4993688;28;20199;-66
2023/07/13 05:55:47;;;;;;;23.33;22.05;;;20.50;99.90;;;;;;4993792;28;20192;-66
2023/07/13 05:58:13;;;;;;;19.73;18.55;;;20.40;99.90;;;;;;4992526;28;20196;-67
2023/07/13 06:00:40;;;;;;;13.05;12.20;;;20.30;99.90;;;;;;4992635;28;20725;-67
2023/07/13 06:03:06;;;;;;;12.30;11.32;;;20.30;99.90;;;;;;4993859;28;20223;-66
2023/07/13 06:05:34;;;;;;;16.35;15.27;;;20.10;99.90;;;;;;4993736;28;20192;-66
2023/07/13 06:08:00;;;;;;;15.73;14.82;;;20.20;99.90;;;;;;4994050;28;21062;-66
2023/07/13 06:10:26;;;;;;;13.82;12.82;;;20.20;99.90;;;;;;4993081;28;20218;-67
2023/07/13 06:12:52;;;;;;;14.75;13.50;;;20.10;99.90;;;;;;4993813;28;20718;-67
2023/07/13 06:15:17;;;;;;;38.95;36.88;;;20.00;99.90;;;;;;4992656;28;20223;-67
2023/07/13 06:17:43;;;;;;;16.60;15.23;;;20.10;99.90;;;;;;4993521;28;20199;-67
2023/07/13 06:20:09;;;;;;;31.25;29.55;;;20.10;99.90;;;;;;4992543;28;20563;-67
2023/07/13 06:22:35;;;;;;;28.63;27.02;;;20.10;99.90;;;;;;4993356;28;20666;-67
2023/07/13 06:25:01;;;;;;;26.95;25.20;;;20.10;99.90;;;;;;4993453;28;20243;-67
2023/07/13 06:27:27;;;;;;;32.63;30.83;;;20.10;99.90;;;;;;4993070;28;20335;-67
2023/07/13 06:29:52;;;;;;;20.33;18.98;;;20.10;99.90;;;;;;4993717;28;20188;-67
2023/07/13 06:32:18;;;;;;;24.80;23.05;;;20.30;99.90;;;;;;4993279;28;20212;-67
2023/07/13 06:34:44;;;;;;;21.77;20.40;;;21.10;99.90;;;;;;4993488;28;20199;-67
2023/07/13 06:37:10;;;;;;;136.23;129.40;;;22.00;99.90;;;;;;4993150;28;20199;-67
2023/07/13 06:39:36;;;;;;;9.65;8.85;;;23.30;99.90;;;;;;4993313;28;20243;-67
2023/07/13 06:42:01;;;;;;;6.93;4.78;;;24.00;99.90;;;;;;4993523;28;20271;-67
2023/07/13 06:44:27;;;;;;;6.85;6.35;;;24.70;99.90;;;;;;4993457;28;20601;-67
2023/07/13 06:46:53;;;;;;;7.22;6.13;;;25.40;99.90;;;;;;4993227;28;20594;-67
2023/07/13 06:49:19;;;;;;;6.70;6.20;;;26.00;99.90;;;;;;4993715;28;20267;-66
2023/07/13 06:51:45;;;;;;;8.77;8.15;;;26.00;99.90;;;;;;4993458;28;20665;-67
2023/07/13 06:54:10;;;;;;;6.88;6.55;;;25.60;99.90;;;;;;4993723;28;20724;-67
2023/07/13 06:56:36;;;;;;;11.50;6.22;;;25.50;99.90;;;;;;4992900;28;20192;-67
2023/07/13 06:59:02;;;;;;;6.80;6.40;;;25.60;99.90;;;;;;4985249;28;20188;-67
2023/07/13 07:01:27;;;;;;;6.80;6.10;;;25.40;99.90;;;;;;4992458;28;20228;-67
2023/07/13 07:03:53;;;;;;;8.32;7.82;;;25.90;99.90;;;;;;4990391;28;20208;-67
2023/07/13 07:06:24;;;;;;;23.58;22.45;;;26.60;98.70;;;;;;4992214;28;20361;-67
2023/07/13 07:08:51;;;;;;;18.00;16.88;;;27.00;96.90;;;;;;4991195;28;20189;-68
2023/07/13 07:11:22;;;;;;;11.50;9.15;;;27.30;95.90;;;;;;4993345;28;20574;-68
2023/07/13 07:13:48;;;;;;;4.60;4.30;;;27.40;95.50;;;;;;4993421;28;20192;-68
2023/07/13 07:16:14;;;;;;;5.53;5.13;;;27.70;94.70;;;;;;4994493;28;20184;-69
2023/07/13 07:18:40;;;;;;;4.53;4.13;;;27.80;93.20;;;;;;4993419;28;20204;-67
2023/07/13 07:21:06;;;;;;;4.07;3.53;;;28.00;92.60;;;;;;4991967;28;20212;-68
2023/07/13 07:23:32;;;;;;;3.67;3.42;;;28.20;91.40;;;;;;4991035;28;20691;-69
2023/07/13 07:25:58;;;;;;;4.00;3.70;;;28.00;91.90;;;;;;4991217;28;20190;-68
2023/07/13 07:28:24;;;;;;;3.58;3.28;;;28.20;92.50;;;;;;4991444;28;20189;-67
2023/07/13 07:30:53;;;;;;;6.75;5.85;;;28.50;90.90;;;;;;4992088;28;20586;-67
2023/07/13 07:33:19;;;;;;;10.00;9.48;;;28.60;88.00;;;;;;4991841;28;20216;-67
2023/07/13 07:35:44;;;;;;;11.20;10.48;;;28.50;86.00;;;;;;4991823;28;20603;-66
2023/07/13 07:38:10;;;;;;;11.38;10.77;;;28.20;87.10;;;;;;4991377;28;20204;-67
2023/07/13 07:40:40;;;;;;;6.82;5.45;;;28.80;82.70;;;;;;4991517;28;20695;-68
2023/07/13 07:43:11;;;;;;;4.97;4.35;;;28.60;78.60;;;;;;4991531;28;20672;-68
2023/07/13 07:45:39;;;;;;;4.55;4.25;;;28.20;79.30;;;;;;4991315;28;20189;-68
2023/07/13 07:48:05;;;;;;;14.60;13.40;;;28.30;80.10;;;;;;4984435;28;20679;-68
2023/07/13 07:50:32;;;;;;;5.53;3.75;;;28.20;75.50;;;;;;4988988;28;20295;-67
2023/07/13 07:52:57;;;;;;;9.63;8.98;;;28.20;77.90;;;;;;4991668;28;20279;-66
2023/07/13 07:55:26;;;;;;;16.27;15.43;;;28.10;75.10;;;;;;4991324;28;20279;-67
2023/07/13 07:57:52;;;;;;;11.05;10.50;;;27.80;73.00;;;;;;4990600;28;20743;-68
2023/07/13 08:00:18;;;;;;;8.65;7.85;;;27.70;73.90;;;;;;4991237;28;20184;-68
2023/07/13 08:02:44;;;;;;;5.53;5.22;;;27.60;74.10;;;;;;4991391;28;20203;-67
2023/07/13 08:05:10;;;;;;;9.65;8.93;;;27.60;75.60;;;;;;4991482;28;20263;-68
2023/07/13 08:07:37;;;;;;;6.03;5.57;;;27.50;73.30;;;;;;4991312;28;20652;-67
2023/07/13 08:10:03;;;;;;;9.38;8.57;;;27.60;73.70;;;;;;4991870;28;20251;-68
2023/07/13 08:12:29;;;;;;;14.10;13.23;;;28.00;73.10;;;;;;4991674;28;20210;-68
2023/07/13 08:14:57;;;;;;;21.25;20.05;;;27.90;71.30;;;;;;4990954;28;20177;-66
2023/07/13 08:17:24;;;;;;;26.30;24.85;;;28.60;70.90;;;;;;4991071;28;20235;-67
2023/07/13 08:19:51;;;;;;;22.20;20.90;;;28.70;69.60;;;;;;4991547;28;20188;-68
2023/07/13 08:22:16;;;;;;;27.55;25.85;;;28.70;71.00;;;;;;4991799;28;20290;-72
2023/07/13 08:24:43;;;;;;;23.77;22.40;;;28.80;68.50;;;;;;4991476;28;20232;-72
2023/07/13 08:27:11;;;;;;;25.52;24.10;;;28.90;67.40;;;;;;4990302;28;20243;-72
2023/07/13 08:29:37;;;;;;;20.35;19.30;;;29.00;68.10;;;;;;4991521;28;20215;-72
2023/07/13 08:32:05;;;;;;;20.25;19.15;;;29.20;67.00;;;;;;4996723;28;20204;-72
2023/07/13 08:34:31;;;;;;;21.90;20.75;;;29.30;65.50;;;;;;4991441;28;20218;-72
2023/07/13 08:36:57;;;;;;;19.40;18.40;;;29.10;66.20;;;;;;4991155;28;20715;-72
2023/07/13 08:39:23;;;;;;;16.00;15.15;;;29.00;66.30;;;;;;4990715;28;20214;-72
2023/07/13 08:41:56;;;;;;;24.17;22.85;;;28.60;64.70;;;;;;4992212;28;20208;-72
2023/07/13 08:45:00;;;;;;;27.73;26.38;;;28.30;65.20;;;;;;4991436;28;20212;-73
2023/07/13 08:47:29;;;;;;;22.70;21.42;;;28.20;66.80;;;;;;4980689;28;20625;-72
2023/07/13 08:49:56;;;;;;;30.77;29.30;;;28.30;67.00;;;;;;4990430;28;20274;-73
2023/07/13 08:52:37;;;;;;;27.05;25.75;;;28.40;65.00;;;;;;4991472;28;20216;-72
2023/07/13 08:55:14;;;;;;;27.70;25.95;;;28.40;65.00;;;;;;4987058;28;20660;-73
2023/07/13 08:57:42;;;;;;;25.60;23.55;;;28.50;64.70;;;;;;4989847;28;20199;-72
2023/07/13 09:00:14;;;;;;;23.38;22.20;;;28.60;65.80;;;;;;4991357;28;20284;-72
2023/07/13 09:03:01;;;;;;;17.50;16.50;;;29.10;64.40;;;;;;4989911;28;20254;-72
2023/07/13 09:05:37;;;;;;;17.33;16.38;;;29.00;63.40;;;;;;4991127;28;20196;-72
2023/07/13 09:08:34;;;;;;;13.88;13.07;;;28.90;63.10;;;;;;4991040;28;20200;-72
2023/07/13 09:11:30;;;;;;;18.08;16.85;;;28.70;62.50;;;;;;4991230;28;20266;-72
2023/07/13 09:14:13;;;;;;;21.35;20.35;;;28.40;63.80;;;;;;4990092;28;20251;-72
2023/07/13 09:16:40;;;;;;;19.58;18.65;;;28.30;64.90;;;;;;5012489;23;20297;-78
2023/07/13 09:19:14;;;;;;;15.73;14.93;;;28.70;62.60;;;;;;4990187;28;20216;-77
2023/07/13 09:21:44;;;;;;;15.23;14.30;;;28.80;61.90;;;;;;4982353;28;20193;-77
2023/07/13 09:24:34;;;;;;;23.70;22.17;;;28.30;62.20;;;;;;4978133;28;20208;-77
2023/07/13 09:27:02;;;;;;;20.90;19.83;;;28.10;63.90;;;;;;4992420;28;20575;-77
2023/07/13 09:29:32;;;;;;;18.83;17.95;;;28.00;63.80;;;;;;4992965;28;20247;-77
2023/07/13 09:32:03;;;;;;;18.15;16.92;;;27.70;65.10;;;;;;4993289;28;20196;-77
2023/07/13 09:34:30;;;;;;;17.77;16.67;;;28.00;63.70;;;;;;4994328;28;20192;-77
2023/07/13 09:36:56;;;;;;;16.30;15.32;;;28.50;63.60;;;;;;4992559;28;20258;-77
2023/07/13 09:39:27;;;;;;;14.07;13.32;;;29.00;62.10;;;;;;4994253;28;20271;-77
2023/07/13 09:42:15;;;;;;;8.65;8.18;;;29.80;60.70;;;;;;4993907;28;20570;-77
2023/07/13 09:44:50;;;;;;;8.68;8.18;;;29.90;59.70;;;;;;4994208;28;20640;-77
2023/07/13 09:47:19;;;;;;;8.65;8.07;;;28.50;59.60;;;;;;4993947;28;20208;-77
2023/07/13 09:49:45;;;;;;;19.05;17.88;;;27.70;61.60;;;;;;4994287;28;20265;-76
2023/07/13 09:52:14;;;;;;;22.17;20.98;;;27.40;62.10;;;;;;4992603;28;20686;-77
2023/07/13 09:54:43;;;;;;;20.48;19.40;;;27.40;63.50;;;;;;4993857;28;20222;-77
2023/07/13 09:57:16;;;;;;;16.40;15.13;;;28.30;63.50;;;;;;4992285;28;20211;-77
2023/07/13 09:59:46;;;;;;;12.10;11.32;;;29.30;62.50;;;;;;4993530;28;20196;-77
2023/07/13 10:02:35;;;;;;;20.15;19.20;;;30.20;59.60;;;;;;4993909;28;20188;-77
2023/07/13 10:05:04;;;;;;;8.13;7.70;;;31.10;58.00;;;;;;4993683;28;20215;-77
2023/07/13 10:07:31;;;;;;;4.15;3.75;;;31.70;57.30;;;;;;4993239;28;20215;-77
2023/07/13 10:10:02;;;;;;;3.13;2.90;;;32.10;57.10;;;;;;4992444;28;20188;-78
2023/07/13 10:12:35;;;;;;;5.45;4.97;;;32.40;56.30;;;;;;4992131;28;20201;-77
2023/07/13 10:15:01;;;;;;;14.90;13.82;;;32.40;56.20;;;;;;4992477;28;20222;-77
2023/07/13 10:17:32;;;;;;;12.23;11.52;;;32.00;53.30;;;;;;4992875;28;20224;-77
2023/07/13 10:20:10;;;;;;;8.27;5.57;;;30.50;54.90;;;;;;4993344;28;20294;-77
2023/07/13 10:22:54;;;;;;;5.35;4.47;;;29.80;56.20;;;;;;4993341;28;20188;-77
2023/07/13 10:25:24;;;;;;;15.90;14.88;;;28.90;57.00;;;;;;4985933;28;20713;-77
2023/07/13 10:28:13;;;;;;;13.70;13.00;;;28.60;57.70;;;;;;5003551;28;20205;-77
2023/07/13 10:30:42;;;;;;;9.57;8.93;;;29.10;58.30;;;;;;5004376;28;20238;-77
2023/07/13 10:33:13;;;;;;;5.65;5.15;;;29.80;56.80;;;;;;4992121;28;20715;-77
2023/07/13 10:35:42;;;;;;;4.38;4.07;;;30.70;55.10;;;;;;4993368;28;20218;-77
2023/07/13 10:38:20;;;;;;;5.22;4.93;;;31.60;55.50;;;;;;4992435;28;20184;-77
2023/07/13 10:41:01;;;;;;;6.63;4.45;;;31.40;54.30;;;;;;4990983;28;20667;-76
2023/07/13 10:43:42;;;;;;;6.50;5.97;;;30.90;56.40;;;;;;4992616;28;20219;-76
2023/07/13 10:46:15;;;;;;;12.30;11.63;;;31.40;55.20;;;;;;4993227;28;20239;-77
2023/07/13 10:48:44;;;;;;;17.25;16.23;;;31.70;54.10;;;;;;4992899;28;20275;-76
2023/07/13 10:51:13;;;;;;;10.35;9.63;;;31.50;53.90;;;;;;4992129;28;20184;-77
2023/07/13 10:53:43;;;;;;;5.95;5.47;;;30.60;54.30;;;;;;4993047;28;20204;-76
2023/07/13 10:56:22;;;;;;;5.45;3.78;;;29.50;55.40;;;;;;4993261;28;20354;-76
2023/07/13 10:59:21;;;;;;;7.13;4.78;;;29.30;56.50;;;;;;4988945;28;20215;-76
2023/07/13 11:01:53;;;;;;;10.60;9.98;;;29.40;56.50;;;;;;4974853;28;20342;-76
2023/07/13 11:04:20;;;;;;;11.38;10.73;;;29.50;57.10;;;;;;4992793;28;20208;-75
2023/07/13 11:06:49;;;;;;;5.75;5.38;;;30.00;57.70;;;;;;4992577;28;20265;-76
2023/07/13 11:09:34;;;;;;;4.80;4.40;;;30.30;56.20;;;;;;4992418;28;20235;-76
2023/07/13 11:12:09;;;;;;;4.78;4.15;;;30.50;55.40;;;;;;4992803;28;20227;-75
2023/07/13 11:14:41;;;;;;;3.60;3.33;;;30.40;54.10;;;;;;4992510;28;20697;-76
2023/07/13 11:17:30;;;;;;;4.72;3.53;;;30.20;55.70;;;;;;4992402;28;20230;-76
2023/07/13 11:20:12;;;;;;;3.60;3.42;;;30.20;56.10;;;;;;4983709;28;20565;-76
2023/07/13 11:22:51;;;;;;;4.43;4.13;;;30.80;55.20;;;;;;4992333;28;20196;-76
2023/07/13 11:25:20;;;;;;;8.75;8.23;;;31.40;54.10;;;;;;4992376;28;20192;-76
2023/07/13 11:27:51;;;;;;;31.60;29.98;;;31.90;53.70;;;;;;4991824;28;20208;-76
2023/07/13 11:30:27;;;;;;;78.50;74.65;;;32.70;51.90;;;;;;4992205;28;20200;-76
2023/07/13 11:33:14;;;;;;;49.45;47.05;;;33.40;52.00;;;;;;4992133;28;20199;-76
2023/07/13 11:35:46;;;;;;;51.58;48.83;;;33.00;51.00;;;;;;4990683;28;20239;-76
2023/07/13 11:38:44;;;;;;;70.07;66.63;;;32.70;52.40;;;;;;4991514;28;20203;-76
2023/07/13 11:41:24;;;;;;;33.22;31.35;;;32.70;51.40;;;;;;4988931;28;20204;-76
2023/07/13 11:43:53;;;;;;;18.35;17.27;;;33.30;50.30;;;;;;4991842;28;20219;-77
2023/07/13 11:46:27;;;;;;;19.25;18.15;;;33.30;49.60;;;;;;4991707;28;20212;-77
2023/07/13 11:48:54;;;;;;;5.53;5.13;;;34.40;50.40;;;;;;4989765;28;20188;-76
2023/07/13 11:51:26;;;;;;;3.38;3.03;;;35.40;48.40;;;;;;4991924;28;20712;-76
2023/07/13 11:53:55;;;;;;;5.03;4.22;;;35.10;47.10;;;;;;4991722;28;20262;-76
2023/07/13 11:56:22;;;;;;;3.90;3.58;;;34.50;48.50;;;;;;4991621;28;20219;-77
2023/07/13 11:58:53;;;;;;;7.80;7.35;;;34.40;47.60;;;;;;4990545;28;20196;-76
2023/07/13 12:01:26;;;;;;;5.32;4.35;;;34.20;48.70;;;;;;4987085;28;20259;-77
2023/07/13 12:03:53;;;;;;;4.25;3.83;;;34.70;47.90;;;;;;5008803;28;20226;-76
2023/07/13 12:06:28;;;;;;;4.63;3.80;;;35.30;47.10;;;;;;4990269;28;20208;-77
2023/07/13 12:09:03;;;;;;;3.60;3.30;;;35.10;47.30;;;;;;4991319;28;20200;-77
2023/07/13 12:11:30;;;;;;;7.10;6.55;;;35.40;46.80;;;;;;4992242;28;20601;-77
2023/07/13 12:13:56;;;;;;;4.82;4.50;;;35.90;46.00;;;;;;4990442;28;20665;-77
2023/07/13 12:16:32;;;;;;;6.13;5.85;;;35.60;45.30;;;;;;4990992;28;20228;-77
2023/07/13 12:19:03;;;;;;;6.03;5.57;;;34.90;46.60;;;;;;4991145;28;20568;-74
2023/07/13 12:21:32;;;;;;;7.10;6.60;;;34.90;47.00;;;;;;4991408;28;20680;-76
2023/07/13 12:24:01;;;;;;;8.07;7.57;;;35.00;46.30;;;;;;4991124;28;20330;-77
2023/07/13 12:26:30;;;;;;;6.53;6.03;;;35.50;44.60;;;;;;4989870;28;20208;-77
2023/07/13 12:28:56;;;;;;;7.22;6.63;;;34.70;46.00;;;;;;4990729;28;20574;-77
2023/07/13 12:31:43;;;;;;;6.05;5.75;;;32.80;47.70;;;;;;4990260;28;20283;-77
2023/07/13 12:34:18;;;;;;;4.80;4.50;;;32.20;49.70;;;;;;4990848;28;20196;-76
2023/07/13 12:36:53;;;;;;;4.93;4.53;;;32.60;48.30;;;;;;4990237;28;20303;-77
2023/07/13 12:39:28;;;;;;;6.45;4.55;;;33.50;47.50;;;;;;4991352;28;20199;-76
2023/07/13 12:42:09;;;;;;;5.45;4.85;;;34.80;45.40;;;;;;4990193;28;20203;-76
2023/07/13 12:44:41;;;;;;;5.30;4.95;;;35.30;45.60;;;;;;4991296;28;20216;-77
2023/07/13 12:47:12;;;;;;;6.78;5.55;;;35.60;45.40;;;;;;4991074;28;20216;-76
2023/07/13 12:49:42;;;;;;;7.22;6.65;;;35.20;45.10;;;;;;4991363;28;20195;-76
2023/07/13 12:52:33;;;;;;;8.13;5.53;;;35.10;45.70;;;;;;4990356;28;20659;-76
2023/07/13 12:55:18;;;;;;;6.25;5.85;;;35.10;45.00;;;;;;4981204;28;20196;-76
2023/07/13 12:57:58;;;;;;;7.70;7.10;;;35.30;44.70;;;;;;4989691;28;20216;-77
2023/07/13 13:00:40;;;;;;;7.15;6.70;;;35.80;44.90;;;;;;4992610;28;20192;-76
2023/07/13 13:03:32;;;;;;;7.18;6.72;;;35.40;43.60;;;;;;4995320;28;20216;-76
2023/07/13 13:06:04;;;;;;;12.27;11.68;;;35.60;43.60;;;;;;4995246;28;20215;-76
2023/07/13 13:08:32;;;;;;;23.00;21.60;;;36.30;43.00;;;;;;4993876;28;20655;-77
2023/07/13 13:10:58;;;;;;;14.10;13.30;;;36.40;42.70;;;;;;4993961;28;20235;-76
2023/07/13 13:13:24;;;;;;;5.32;4.82;;;34.60;44.40;;;;;;4994052;28;20563;-76
2023/07/13 13:15:50;;;;;;;7.88;7.28;;;32.30;46.10;;;;;;4994834;28;20232;-75
2023/07/13 13:18:18;;;;;;;7.38;6.97;;;31.90;48.00;;;;;;4993496;28;20199;-76
2023/07/13 13:20:44;;;;;;;4.70;4.18;;;32.20;47.40;;;;;;4994947;28;20196;-76
2023/07/13 13:23:17;;;;;;;5.40;5.03;;;32.10;47.30;;;;;;4994845;28;20278;-76
2023/07/13 13:25:44;;;;;;;6.45;6.13;;;31.60;47.30;;;;;;4993578;28;20189;-76
2023/07/13 13:28:19;;;;;;;9.00;7.20;;;32.30;47.60;;;;;;4994430;28;20187;-76
2023/07/13 13:30:47;;;;;;;4.57;3.90;;;32.70;47.80;;;;;;4993612;28;20588;-76
2023/07/13 13:33:15;;;;;;;4.00;3.70;;;33.50;46.30;;;;;;4993524;28;20568;-76
2023/07/13 13:35:43;;;;;;;6.60;6.20;;;35.10;44.90;;;;;;5012392;28;20201;-78
2023/07/13 13:38:17;;;;;;;11.88;11.05;;;36.30;42.90;;;;;;4996369;28;20204;-77
2023/07/13 13:40:44;;;;;;;22.42;21.13;;;37.00;41.70;;;;;;4994648;28;20562;-77
2023/07/13 13:43:18;;;;;;;26.40;25.00;;;36.00;41.10;;;;;;4994839;28;20207;-77
2023/07/13 13:45:46;;;;;;;9.93;9.38;;;34.70;42.30;;;;;;4993099;28;20188;-76
2023/07/13 13:48:21;;;;;;;7.97;7.30;;;34.20;43.10;;;;;;4994013;28;20231;-77
2023/07/13 13:50:48;;;;;;;6.90;6.25;;;33.50;44.20;;;;;;4994253;28;20275;-76
2023/07/13 13:53:14;;;;;;;5.25;3.65;;;33.00;44.60;;;;;;4994281;28;20189;-76
2023/07/13 13:55:41;;;;;;;5.40;4.60;;;33.10;44.60;;;;;;4994393;28;20599;-76
2023/07/13 13:58:09;;;;;;;5.35;4.88;;;32.90;45.10;;;;;;4993785;28;20649;-76
2023/07/13 14:00:36;;;;;;;6.57;6.05;;;33.40;44.60;;;;;;4993045;28;20215;-77
2023/07/13 14:03:02;;;;;;;6.32;5.93;;;33.70;43.60;;;;;;4993861;28;20231;-76
2023/07/13 14:05:29;;;;;;;8.88;4.63;;;33.10;43.20;;;;;;4993947;28;20263;-76
2023/07/13 14:07:56;;;;;;;6.28;4.45;;;32.20;45.70;;;;;;4994225;28;20203;-77
2023/07/13 14:10:22;;;;;;;6.97;6.53;;;33.50;45.70;;;;;;4992620;28;20192;-76
2023/07/13 14:12:52;;;;;;;7.03;6.55;;;34.90;42.40;;;;;;4993099;28;20180;-76
2023/07/13 14:15:25;;;;;;;6.03;5.53;;;34.20;41.90;;;;;;4992589;28;20776;-76
2023/07/13 14:17:51;;;;;;;4.43;3.90;;;32.60;44.10;;;;;;4993180;28;20220;-77
2023/07/13 14:20:19;;;;;;;3.80;3.60;;;32.50;45.10;;;;;;4992588;28;20276;-76
2023/07/13 14:22:45;;;;;;;7.97;7.38;;;33.60;44.50;;;;;;4992166;28;20247;-76
2023/07/13 14:25:12;;;;;;;5.55;5.15;;;34.40;43.10;;;;;;4993535;28;20660;-78
2023/07/13 14:27:39;;;;;;;9.57;7.28;;;34.60;43.50;;;;;;4993154;28;20273;-76
2023/07/13 14:30:14;;;;;;;5.60;5.13;;;33.90;42.50;;;;;;4986611;28;20185;-76
2023/07/13 14:32:40;;;;;;;4.55;4.13;;;32.60;44.30;;;;;;4992717;28;20807;-77
2023/07/13 14:35:07;;;;;;;3.42;3.13;;;31.70;45.10;;;;;;4993206;28;20189;-76
2023/07/13 14:37:34;;;;;;;4.82;4.35;;;30.80;46.60;;;;;;4992352;28;20208;-76
2023/07/13 14:40:00;;;;;;;5.35;4.32;;;31.30;46.30;;;;;;4993645;28;20579;-77
2023/07/13 14:42:25;;;;;;;3.20;3.00;;;32.40;45.10;;;;;;4991924;28;20192;-77
2023/07/13 14:44:51;;;;;;;6.85;4.60;;;32.70;44.00;;;;;;4991179;28;20577;-76
2023/07/13 14:47:18;;;;;;;5.20;4.88;;;32.40;44.00;;;;;;4991596;28;20676;-76
2023/07/13 14:49:44;;;;;;;6.07;3.80;;;32.00;45.10;;;;;;4992666;28;20193;-76
2023/07/13 14:52:16;;;;;;;3.85;3.50;;;32.00;45.70;;;;;;4991642;28;20609;-77
2023/07/13 14:54:43;;;;;;;6.00;4.05;;;32.20;44.60;;;;;;4988802;28;20278;-76
2023/07/13 14:57:11;;;;;;;5.50;2.95;;;33.00;43.50;;;;;;4992309;28;20973;-75
2023/07/13 14:59:36;;;;;;;5.78;5.28;;;34.00;43.00;;;;;;4991583;28;20568;-75
2023/07/13 15:02:02;;;;;;;5.22;4.88;;;34.60;42.10;;;;;;4992986;28;20188;-76
2023/07/13 15:04:29;;;;;;;5.72;5.22;;;33.80;42.50;;;;;;4991645;28;20243;-77
2023/07/13 15:06:59;;;;;;;6.45;5.95;;;33.50;43.00;;;;;;4993239;28;20239;-76
2023/07/13 15:09:26;;;;;;;5.53;5.22;;;32.40;44.10;;;;;;5013977;28;20199;-77
2023/07/13 15:11:55;;;;;;;9.93;9.27;;;31.00;46.80;;;;;;4993102;28;20211;-77
2023/07/13 15:14:21;;;;;;;51.97;49.38;;;29.80;46.90;;;;;;4992733;28;20195;-76
2023/07/13 15:16:50;;;;;;;65.22;61.85;;;29.30;47.80;;;;;;5013450;23;20315;-72
2023/07/13 15:19:18;;;;;;;13.75;13.02;;;30.40;47.50;;;;;;4992334;28;20189;-72
2023/07/13 15:21:44;;;;;;;3.80;3.50;;;31.80;45.20;;;;;;4992320;28;20184;-71
2023/07/13 15:24:11;;;;;;;3.67;3.08;;;32.00;44.10;;;;;;4990776;28;20380;-72
2023/07/13 15:26:38;;;;;;;3.90;3.60;;;31.70;44.50;;;;;;4990392;28;20646;-72
2023/07/13 15:29:05;;;;;;;3.15;3.05;;;32.20;44.00;;;;;;4991656;28;20597;-72
2023/07/13 15:31:32;;;;;;;3.95;3.75;;;32.50;43.80;;;;;;4992016;28;20191;-72
2023/07/13 15:33:59;;;;;;;4.07;3.85;;;32.30;43.70;;;;;;4991816;28;20250;-72
2023/07/13 15:36:26;;;;;;;3.88;3.55;;;32.20;43.90;;;;;;4991896;28;20578;-72
2023/07/13 15:38:54;;;;;;;7.03;6.60;;;31.30;45.10;;;;;;4998705;28;20314;-72
2023/07/13 15:41:25;;;;;;;51.35;48.92;;;30.60;46.50;;;;;;4992442;28;20215;-72
2023/07/13 15:43:59;;;;;;;93.85;89.28;;;29.60;48.10;;;;;;4992104;28;20724;-72
2023/07/13 15:46:28;;;;;;;22.65;21.45;;;28.90;48.60;;;;;;4992267;28;20286;-72
2023/07/13 15:48:56;;;;;;;5.25;3.70;;;28.30;49.80;;;;;;4985991;28;20188;-72